sensor_id;sensor_type;location;lat;lon;timestamp;pressure;altitude;pressure_sealevel;temperature;humidity
37848;BME280;23688;33.130;-117.188;2023-04-07T00:02:11;99512.31;;;18.70;26.67
37848;BME280;23688;33.130;-117.188;2023-04-07T00:04:37;99507.91;;;18.70;28.08
37848;BME280;23688;33.130;-117.188;2023-04-07T00:07:04;99517.75;;;18.85;29.08
37848;BME280;23688;33.130;-117.188;2023-04-07T00:09:30;99502.63;;;18.64;28.28
37848;BME280;23688;33.130;-117.188;2023-04-07T00:11:56;99510.53;;;18.67;30.54
37848;BME280;23688;33.130;-117.188;2023-04-07T00:14:23;99528.84;;;18.58;30.75
37848;BME280;23688;33.130;-117.188;2023-04-07T00:16:49;99519.13;;;18.49;28.57
37848;BME280;23688;33.130;-117.188;2023-04-07T00:19:15;99525.06;;;18.28;27.85
37848;BME280;23688;33.130;-117.188;2023-04-07T00:21:41;99531.84;;;18.08;26.93
37848;BME280;23688;33.130;-117.188;2023-04-07T00:24:08;99522.59;;;17.72;27.07
37848;BME280;23688;33.130;-117.188;2023-04-07T00:26:34;99531.03;;;17.46;30.04
37848;BME280;23688;33.130;-117.188;2023-04-07T00:29:00;99528.22;;;17.34;30.24
37848;BME280;23688;33.130;-117.188;2023-04-07T00:31:27;99523.94;;;17.39;30.59
37848;BME280;23688;33.130;-117.188;2023-04-07T00:33:53;99514.50;;;17.55;32.03
37848;BME280;23688;33.130;-117.188;2023-04-07T00:36:20;99536.66;;;17.77;32.94
37848;BME280;23688;33.130;-117.188;2023-04-07T00:38:47;99529.81;;;17.85;31.38
37848;BME280;23688;33.130;-117.188;2023-04-07T00:41:13;99534.41;;;18.03;32.24
37848;BME280;23688;33.130;-117.188;2023-04-07T00:43:39;99524.72;;;17.99;31.84
37848;BME280;23688;33.130;-117.188;2023-04-07T00:46:06;99530.41;;;17.67;32.05
37848;BME280;23688;33.130;-117.188;2023-04-07T00:48:32;99543.53;;;17.67;33.04
37848;BME280;23688;33.130;-117.188;2023-04-07T00:50:59;99530.47;;;17.70;33.31
37848;BME280;23688;33.130;-117.188;2023-04-07T00:53:25;99539.25;;;17.71;33.98
37848;BME280;23688;33.130;-117.188;2023-04-07T00:55:51;99526.97;;;17.71;34.16
37848;BME280;23688;33.130;-117.188;2023-04-07T00:58:18;99537.91;;;18.02;35.40
37848;BME280;23688;33.130;-117.188;2023-04-07T01:00:50;99543.47;;;18.30;34.62
37848;BME280;23688;33.130;-117.188;2023-04-07T01:03:29;99547.25;;;18.56;35.17
37848;BME280;23688;33.130;-117.188;2023-04-07T01:06:04;99561.84;;;18.28;33.43
37848;BME280;23688;33.130;-117.188;2023-04-07T01:08:56;99562.59;;;18.18;34.98
37848;BME280;23688;33.130;-117.188;2023-04-07T01:11:43;99555.91;;;18.48;35.33
37848;BME280;23688;33.130;-117.188;2023-04-07T01:14:15;99561.13;;;18.43;34.06
37848;BME280;23688;33.130;-117.188;2023-04-07T01:16:49;99550.59;;;18.43;32.65
37848;BME280;23688;33.130;-117.188;2023-04-07T01:22:02;99550.66;;;18.48;33.76
37848;BME280;23688;33.130;-117.188;2023-04-07T01:28:13;99568.22;;;18.49;34.33
37848;BME280;23688;33.130;-117.188;2023-04-07T01:30:22;99572.31;;;18.24;30.62
37848;BME280;23688;33.130;-117.188;2023-04-07T01:32:52;99569.47;;;18.05;30.96
37848;BME280;23688;33.130;-117.188;2023-04-07T01:35:19;99573.53;;;17.80;32.31
37848;BME280;23688;33.130;-117.188;2023-04-07T01:37:48;99573.34;;;17.69;31.41
37848;BME280;23688;33.130;-117.188;2023-04-07T01:40:15;99570.13;;;17.89;33.39
37848;BME280;23688;33.130;-117.188;2023-04-07T01:42:43;99569.22;;;17.85;32.23
37848;BME280;23688;33.130;-117.188;2023-04-07T01:45:11;99570.09;;;17.86;32.04
37848;BME280;23688;33.130;-117.188;2023-04-07T01:47:38;99562.00;;;17.70;31.90
37848;BME280;23688;33.130;-117.188;2023-04-07T01:50:06;99568.78;;;17.58;32.04
37848;BME280;23688;33.130;-117.188;2023-04-07T01:52:34;99561.91;;;17.64;32.48
37848;BME280;23688;33.130;-117.188;2023-04-07T01:55:05;99557.63;;;17.71;32.49
37848;BME280;23688;33.130;-117.188;2023-04-07T01:57:32;99570.16;;;17.90;33.22
37848;BME280;23688;33.130;-117.188;2023-04-07T01:59:58;99558.81;;;17.93;34.25
37848;BME280;23688;33.130;-117.188;2023-04-07T02:02:25;99566.59;;;17.85;32.63
37848;BME280;23688;33.130;-117.188;2023-04-07T02:04:56;99550.78;;;17.82;32.72
37848;BME280;23688;33.130;-117.188;2023-04-07T02:07:44;99557.69;;;17.75;32.40
37848;BME280;23688;33.130;-117.188;2023-04-07T02:10:13;99561.22;;;17.79;33.09
37848;BME280;23688;33.130;-117.188;2023-04-07T02:12:41;99565.56;;;17.75;33.38
37848;BME280;23688;33.130;-117.188;2023-04-07T02:15:12;99560.97;;;17.62;32.68
37848;BME280;23688;33.130;-117.188;2023-04-07T02:17:40;99562.59;;;17.52;33.00
37848;BME280;23688;33.130;-117.188;2023-04-07T02:20:07;99572.16;;;17.47;33.97
37848;BME280;23688;33.130;-117.188;2023-04-07T02:22:37;99567.53;;;17.31;34.44
37848;BME280;23688;33.130;-117.188;2023-04-07T02:25:26;99564.59;;;17.11;34.21
37848;BME280;23688;33.130;-117.188;2023-04-07T02:27:54;99559.06;;;16.93;34.33
37848;BME280;23688;33.130;-117.188;2023-04-07T02:30:21;99583.38;;;16.84;34.84
37848;BME280;23688;33.130;-117.188;2023-04-07T02:32:48;99566.47;;;16.69;35.14
37848;BME280;23688;33.130;-117.188;2023-04-07T02:35:14;99567.13;;;16.56;35.17
37848;BME280;23688;33.130;-117.188;2023-04-07T02:37:42;99567.75;;;16.43;36.06
37848;BME280;23688;33.130;-117.188;2023-04-07T02:40:09;99575.41;;;16.32;36.61
37848;BME280;23688;33.130;-117.188;2023-04-07T02:42:36;99571.72;;;16.24;36.42
37848;BME280;23688;33.130;-117.188;2023-04-07T02:45:03;99568.00;;;16.11;37.07
37848;BME280;23688;33.130;-117.188;2023-04-07T02:47:32;99571.34;;;16.04;37.66
37848;BME280;23688;33.130;-117.188;2023-04-07T02:49:58;99567.66;;;15.94;37.38
37848;BME280;23688;33.130;-117.188;2023-04-07T02:52:25;99567.47;;;15.85;38.05
37848;BME280;23688;33.130;-117.188;2023-04-07T02:54:51;99573.25;;;15.70;37.96
37848;BME280;23688;33.130;-117.188;2023-04-07T02:57:17;99570.41;;;15.61;37.84
37848;BME280;23688;33.130;-117.188;2023-04-07T02:59:44;99569.34;;;15.53;38.32
37848;BME280;23688;33.130;-117.188;2023-04-07T03:02:12;99574.44;;;15.47;38.73
37848;BME280;23688;33.130;-117.188;2023-04-07T03:04:39;99565.44;;;15.34;38.74
37848;BME280;23688;33.130;-117.188;2023-04-07T03:07:05;99555.53;;;15.20;38.76
37848;BME280;23688;33.130;-117.188;2023-04-07T03:09:31;99582.66;;;15.24;39.53
37848;BME280;23688;33.130;-117.188;2023-04-07T03:11:58;99589.56;;;15.22;39.76
37848;BME280;23688;33.130;-117.188;2023-04-07T03:14:24;99595.50;;;15.15;39.74
37848;BME280;23688;33.130;-117.188;2023-04-07T03:16:51;99580.28;;;14.98;40.38
37848;BME280;23688;33.130;-117.188;2023-04-07T03:19:17;99593.19;;;14.92;40.79
37848;BME280;23688;33.130;-117.188;2023-04-07T03:21:43;99585.13;;;14.83;40.62
37848;BME280;23688;33.130;-117.188;2023-04-07T03:24:12;99603.53;;;14.88;40.75
37848;BME280;23688;33.130;-117.188;2023-04-07T03:26:38;99596.44;;;14.84;40.71
37848;BME280;23688;33.130;-117.188;2023-04-07T03:29:05;99607.03;;;14.88;40.73
37848;BME280;23688;33.130;-117.188;2023-04-07T03:32:04;99614.88;;;14.88;42.16
37848;BME280;23688;33.130;-117.188;2023-04-07T03:34:30;99608.47;;;14.77;42.17
37848;BME280;23688;33.130;-117.188;2023-04-07T03:36:57;99623.22;;;14.75;41.51
37848;BME280;23688;33.130;-117.188;2023-04-07T03:39:24;99623.16;;;14.72;41.78
37848;BME280;23688;33.130;-117.188;2023-04-07T03:41:51;99622.13;;;14.67;41.23
37848;BME280;23688;33.130;-117.188;2023-04-07T03:44:17;99625.63;;;14.67;41.47
37848;BME280;23688;33.130;-117.188;2023-04-07T03:46:43;99622.88;;;14.61;42.21
37848;BME280;23688;33.130;-117.188;2023-04-07T03:49:13;99607.78;;;14.52;41.72
37848;BME280;23688;33.130;-117.188;2023-04-07T03:51:40;99611.84;;;14.41;41.75
37848;BME280;23688;33.130;-117.188;2023-04-07T03:54:07;99632.81;;;14.44;42.13
37848;BME280;23688;33.130;-117.188;2023-04-07T03:56:33;99623.03;;;14.37;42.47
37848;BME280;23688;33.130;-117.188;2023-04-07T03:58:59;99644.06;;;14.42;43.08
37848;BME280;23688;33.130;-117.188;2023-04-07T04:01:26;99639.66;;;14.39;43.14
37848;BME280;23688;33.130;-117.188;2023-04-07T04:03:53;99651.84;;;14.40;43.31
37848;BME280;23688;33.130;-117.188;2023-04-07T04:06:20;99649.97;;;14.36;43.73
37848;BME280;23688;33.130;-117.188;2023-04-07T04:08:46;99663.03;;;14.34;44.38
37848;BME280;23688;33.130;-117.188;2023-04-07T04:11:12;99655.50;;;14.17;45.16
37848;BME280;23688;33.130;-117.188;2023-04-07T04:13:39;99651.66;;;14.04;46.11
37848;BME280;23688;33.130;-117.188;2023-04-07T04:16:06;99667.53;;;14.10;46.45
37848;BME280;23688;33.130;-117.188;2023-04-07T04:18:32;99671.75;;;14.06;47.05
37848;BME280;23688;33.130;-117.188;2023-04-07T04:21:00;99668.97;;;14.00;47.29
37848;BME280;23688;33.130;-117.188;2023-04-07T04:23:26;99676.59;;;13.94;47.92
37848;BME280;23688;33.130;-117.188;2023-04-07T04:25:54;99677.25;;;13.87;48.62
37848;BME280;23688;33.130;-117.188;2023-04-07T04:28:21;99677.81;;;13.77;49.39
37848;BME280;23688;33.130;-117.188;2023-04-07T04:30:47;99669.69;;;13.67;50.15
37848;BME280;23688;33.130;-117.188;2023-04-07T04:33:14;99683.66;;;13.68;50.58
37848;BME280;23688;33.130;-117.188;2023-04-07T04:35:40;99682.72;;;13.67;51.35
37848;BME280;23688;33.130;-117.188;2023-04-07T04:38:06;99672.13;;;13.61;51.49
37848;BME280;23688;33.130;-117.188;2023-04-07T04:40:33;99689.50;;;13.61;51.63
37848;BME280;23688;33.130;-117.188;2023-04-07T04:43:02;99694.50;;;13.55;52.29
37848;BME280;23688;33.130;-117.188;2023-04-07T04:45:32;99689.03;;;13.47;52.75
37848;BME280;23688;33.130;-117.188;2023-04-07T04:47:58;99685.88;;;13.30;53.94
37848;BME280;23688;33.130;-117.188;2023-04-07T04:50:25;99695.84;;;13.18;54.84
37848;BME280;23688;33.130;-117.188;2023-04-07T04:52:51;99687.78;;;13.10;55.70
37848;BME280;23688;33.130;-117.188;2023-04-07T04:55:18;99695.03;;;12.95;56.45
37848;BME280;23688;33.130;-117.188;2023-04-07T04:57:44;99672.25;;;12.63;57.02
37848;BME280;23688;33.130;-117.188;2023-04-07T05:00:11;99702.59;;;12.63;58.17
37848;BME280;23688;33.130;-117.188;2023-04-07T05:02:37;99691.88;;;12.54;58.58
37848;BME280;23688;33.130;-117.188;2023-04-07T05:05:04;99696.13;;;12.52;59.32
37848;BME280;23688;33.130;-117.188;2023-04-07T05:07:31;99684.66;;;12.47;57.63
37848;BME280;23688;33.130;-117.188;2023-04-07T05:09:57;99689.28;;;12.54;56.54
37848;BME280;23688;33.130;-117.188;2023-04-07T05:12:23;99691.81;;;12.52;56.78
37848;BME280;23688;33.130;-117.188;2023-04-07T05:14:49;99699.16;;;12.40;57.39
37848;BME280;23688;33.130;-117.188;2023-04-07T05:17:16;99702.72;;;12.42;56.81
37848;BME280;23688;33.130;-117.188;2023-04-07T05:19:42;99694.03;;;12.41;57.16
37848;BME280;23688;33.130;-117.188;2023-04-07T05:22:09;99709.97;;;12.51;57.21
37848;BME280;23688;33.130;-117.188;2023-04-07T05:24:35;99709.53;;;12.38;57.41
37848;BME280;23688;33.130;-117.188;2023-04-07T05:27:01;99704.75;;;12.27;57.63
37848;BME280;23688;33.130;-117.188;2023-04-07T05:29:28;99705.78;;;12.08;58.18
37848;BME280;23688;33.130;-117.188;2023-04-07T05:31:54;99711.31;;;11.94;59.04
37848;BME280;23688;33.130;-117.188;2023-04-07T05:34:24;99710.03;;;11.85;59.18
37848;BME280;23688;33.130;-117.188;2023-04-07T05:36:50;99700.84;;;11.72;59.56
37848;BME280;23688;33.130;-117.188;2023-04-07T05:39:16;99670.81;;;11.57;60.21
37848;BME280;23688;33.130;-117.188;2023-04-07T05:41:43;99676.06;;;11.59;58.37
37848;BME280;23688;33.130;-117.188;2023-04-07T05:44:09;99679.75;;;11.64;58.88
37848;BME280;23688;33.130;-117.188;2023-04-07T05:46:36;99678.22;;;11.69;59.09
37848;BME280;23688;33.130;-117.188;2023-04-07T05:49:02;99673.19;;;11.74;58.49
37848;BME280;23688;33.130;-117.188;2023-04-07T05:51:29;99672.53;;;11.79;58.26
37848;BME280;23688;33.130;-117.188;2023-04-07T05:53:57;99654.13;;;11.73;57.18
37848;BME280;23688;33.130;-117.188;2023-04-07T05:56:23;99678.16;;;11.89;57.50
37848;BME280;23688;33.130;-117.188;2023-04-07T05:58:50;99662.22;;;11.81;58.87
37848;BME280;23688;33.130;-117.188;2023-04-07T06:01:18;99674.44;;;11.84;59.25
37848;BME280;23688;33.130;-117.188;2023-04-07T06:03:44;99665.63;;;11.80;59.25
37848;BME280;23688;33.130;-117.188;2023-04-07T06:06:11;99647.50;;;11.61;57.96
37848;BME280;23688;33.130;-117.188;2023-04-07T06:08:37;99658.06;;;11.64;58.80
37848;BME280;23688;33.130;-117.188;2023-04-07T06:11:03;99664.72;;;11.57;59.01
37848;BME280;23688;33.130;-117.188;2023-04-07T06:13:30;99656.50;;;11.46;59.71
37848;BME280;23688;33.130;-117.188;2023-04-07T06:15:56;99654.28;;;11.34;58.91
37848;BME280;23688;33.130;-117.188;2023-04-07T06:18:22;99651.97;;;11.20;58.74
37848;BME280;23688;33.130;-117.188;2023-04-07T06:20:48;99657.09;;;11.18;59.15
37848;BME280;23688;33.130;-117.188;2023-04-07T06:23:15;99667.59;;;11.21;60.04
37848;BME280;23688;33.130;-117.188;2023-04-07T06:25:42;99671.09;;;11.22;61.34
37848;BME280;23688;33.130;-117.188;2023-04-07T06:28:08;99646.50;;;11.13;60.89
37848;BME280;23688;33.130;-117.188;2023-04-07T06:30:34;99651.75;;;11.15;60.50
37848;BME280;23688;33.130;-117.188;2023-04-07T06:33:01;99656.09;;;11.14;60.39
37848;BME280;23688;33.130;-117.188;2023-04-07T06:35:27;99664.44;;;11.07;60.34
37848;BME280;23688;33.130;-117.188;2023-04-07T06:37:53;99648.19;;;10.92;61.08
37848;BME280;23688;33.130;-117.188;2023-04-07T06:40:20;99661.38;;;10.97;61.73
37848;BME280;23688;33.130;-117.188;2023-04-07T06:42:46;99652.50;;;10.91;61.86
37848;BME280;23688;33.130;-117.188;2023-04-07T06:45:13;99666.56;;;10.97;61.66
37848;BME280;23688;33.130;-117.188;2023-04-07T06:47:39;99663.66;;;10.89;61.30
37848;BME280;23688;33.130;-117.188;2023-04-07T06:50:06;99662.84;;;10.90;61.95
37848;BME280;23688;33.130;-117.188;2023-04-07T06:52:33;99663.53;;;10.86;61.77
37848;BME280;23688;33.130;-117.188;2023-04-07T06:54:59;99645.72;;;10.74;62.44
37848;BME280;23688;33.130;-117.188;2023-04-07T06:57:26;99669.34;;;10.80;61.58
37848;BME280;23688;33.130;-117.188;2023-04-07T06:59:53;99655.00;;;10.69;60.85
37848;BME280;23688;33.130;-117.188;2023-04-07T07:02:19;99652.63;;;10.54;59.86
37848;BME280;23688;33.130;-117.188;2023-04-07T07:04:45;99661.38;;;10.56;58.27
37848;BME280;23688;33.130;-117.188;2023-04-07T07:07:12;99658.16;;;10.62;59.77
37848;BME280;23688;33.130;-117.188;2023-04-07T07:09:38;99664.50;;;10.68;59.41
37848;BME280;23688;33.130;-117.188;2023-04-07T07:12:04;99668.75;;;10.66;58.30
37848;BME280;23688;33.130;-117.188;2023-04-07T07:14:31;99664.88;;;10.57;59.39
37848;BME280;23688;33.130;-117.188;2023-04-07T07:16:57;99669.44;;;10.43;61.08
37848;BME280;23688;33.130;-117.188;2023-04-07T07:19:23;99663.91;;;10.35;62.59
37848;BME280;23688;33.130;-117.188;2023-04-07T07:21:50;99667.13;;;10.30;62.67
37848;BME280;23688;33.130;-117.188;2023-04-07T07:24:16;99671.78;;;10.19;62.25
37848;BME280;23688;33.130;-117.188;2023-04-07T07:26:42;99660.50;;;10.18;63.43
37848;BME280;23688;33.130;-117.188;2023-04-07T07:29:09;99651.72;;;10.15;63.93
37848;BME280;23688;33.130;-117.188;2023-04-07T07:31:36;99644.25;;;10.03;64.56
37848;BME280;23688;33.130;-117.188;2023-04-07T07:34:02;99653.06;;;10.06;65.06
37848;BME280;23688;33.130;-117.188;2023-04-07T07:36:28;99655.53;;;10.03;65.76
37848;BME280;23688;33.130;-117.188;2023-04-07T07:38:56;99616.25;;;9.76;66.42
37848;BME280;23688;33.130;-117.188;2023-04-07T07:41:23;99643.69;;;9.91;66.77
37848;BME280;23688;33.130;-117.188;2023-04-07T07:43:49;99646.72;;;10.00;65.84
37848;BME280;23688;33.130;-117.188;2023-04-07T07:46:16;99642.19;;;9.96;63.26
37848;BME280;23688;33.130;-117.188;2023-04-07T07:48:42;99636.19;;;9.97;62.55
37848;BME280;23688;33.130;-117.188;2023-04-07T07:51:08;99649.50;;;10.04;63.28
37848;BME280;23688;33.130;-117.188;2023-04-07T07:53:34;99647.88;;;10.06;63.70
37848;BME280;23688;33.130;-117.188;2023-04-07T07:56:01;99652.47;;;10.12;63.19
37848;BME280;23688;33.130;-117.188;2023-04-07T07:58:27;99649.19;;;10.16;64.33
37848;BME280;23688;33.130;-117.188;2023-04-07T08:00:53;99630.41;;;10.02;63.05
37848;BME280;23688;33.130;-117.188;2023-04-07T08:03:20;99654.03;;;10.08;63.82
37848;BME280;23688;33.130;-117.188;2023-04-07T08:05:48;99651.00;;;9.99;64.48
37848;BME280;23688;33.130;-117.188;2023-04-07T08:08:14;99655.25;;;9.97;65.41
37848;BME280;23688;33.130;-117.188;2023-04-07T08:10:40;99660.16;;;9.91;64.66
37848;BME280;23688;33.130;-117.188;2023-04-07T08:13:07;99664.00;;;9.81;64.84
37848;BME280;23688;33.130;-117.188;2023-04-07T08:15:33;99670.59;;;9.75;65.02
37848;BME280;23688;33.130;-117.188;2023-04-07T08:18:00;99669.72;;;9.74;65.35
37848;BME280;23688;33.130;-117.188;2023-04-07T08:20:29;99656.31;;;9.65;64.83
37848;BME280;23688;33.130;-117.188;2023-04-07T08:22:56;99673.38;;;9.78;65.00
37848;BME280;23688;33.130;-117.188;2023-04-07T08:25:23;99673.06;;;9.72;64.69
37848;BME280;23688;33.130;-117.188;2023-04-07T08:27:49;99660.69;;;9.66;64.37
37848;BME280;23688;33.130;-117.188;2023-04-07T08:30:16;99659.66;;;9.62;64.47
37848;BME280;23688;33.130;-117.188;2023-04-07T08:32:44;99659.44;;;9.58;64.68
37848;BME280;23688;33.130;-117.188;2023-04-07T08:35:12;99650.56;;;9.53;64.51
37848;BME280;23688;33.130;-117.188;2023-04-07T08:37:39;99658.56;;;9.57;64.68
37848;BME280;23688;33.130;-117.188;2023-04-07T08:40:08;99654.19;;;9.56;64.56
37848;BME280;23688;33.130;-117.188;2023-04-07T08:42:39;99655.28;;;9.61;63.84
37848;BME280;23688;33.130;-117.188;2023-04-07T08:45:07;99653.81;;;9.67;64.22
37848;BME280;23688;33.130;-117.188;2023-04-07T08:47:35;99642.38;;;9.63;64.62
37848;BME280;23688;33.130;-117.188;2023-04-07T08:50:07;99645.28;;;9.69;64.28
37848;BME280;23688;33.130;-117.188;2023-04-07T08:52:39;99639.88;;;9.64;64.67
37848;BME280;23688;33.130;-117.188;2023-04-07T08:55:07;99646.03;;;9.67;64.69
37848;BME280;23688;33.130;-117.188;2023-04-07T08:57:34;99642.19;;;9.58;65.25
37848;BME280;23688;33.130;-117.188;2023-04-07T09:00:03;99637.84;;;9.39;65.99
37848;BME280;23688;33.130;-117.188;2023-04-07T09:02:40;99629.09;;;9.19;68.44
37848;BME280;23688;33.130;-117.188;2023-04-07T09:05:09;99652.00;;;9.12;68.61
37848;BME280;23688;33.130;-117.188;2023-04-07T09:07:37;99649.00;;;9.03;68.87
37848;BME280;23688;33.130;-117.188;2023-04-07T09:10:05;99644.84;;;9.06;70.10
37848;BME280;23688;33.130;-117.188;2023-04-07T09:12:32;99642.97;;;9.04;69.92
37848;BME280;23688;33.130;-117.188;2023-04-07T09:15:00;99642.75;;;8.99;69.97
37848;BME280;23688;33.130;-117.188;2023-04-07T09:17:27;99642.50;;;8.94;71.50
37848;BME280;23688;33.130;-117.188;2023-04-07T09:20:00;99616.34;;;8.88;71.33
37848;BME280;23688;33.130;-117.188;2023-04-07T09:22:38;99624.34;;;8.93;71.45
37848;BME280;23688;33.130;-117.188;2023-04-07T09:25:18;99612.03;;;8.89;71.89
37848;BME280;23688;33.130;-117.188;2023-04-07T09:28:13;99614.88;;;8.93;71.51
37848;BME280;23688;33.130;-117.188;2023-04-07T09:30:52;99623.75;;;8.98;71.60
37848;BME280;23688;33.130;-117.188;2023-04-07T09:33:26;99611.63;;;8.97;70.91
37848;BME280;23688;33.130;-117.188;2023-04-07T09:35:53;99608.94;;;8.96;70.70
37848;BME280;23688;33.130;-117.188;2023-04-07T09:38:20;99620.66;;;9.06;70.30
37848;BME280;23688;33.130;-117.188;2023-04-07T09:40:46;99624.34;;;9.11;69.77
37848;BME280;23688;33.130;-117.188;2023-04-07T09:43:17;99621.00;;;9.13;69.42
37848;BME280;23688;33.130;-117.188;2023-04-07T09:45:43;99626.44;;;9.18;69.23
37848;BME280;23688;33.130;-117.188;2023-04-07T09:48:20;99626.72;;;9.24;69.71
37848;BME280;23688;33.130;-117.188;2023-04-07T09:50:47;99620.66;;;9.24;70.30
37848;BME280;23688;33.130;-117.188;2023-04-07T09:53:16;99628.38;;;9.22;70.73
37848;BME280;23688;33.130;-117.188;2023-04-07T09:55:48;99623.19;;;9.22;70.79
37848;BME280;23688;33.130;-117.188;2023-04-07T09:58:15;99629.38;;;9.26;69.66
37848;BME280;23688;33.130;-117.188;2023-04-07T10:00:41;99624.19;;;9.26;68.97
37848;BME280;23688;33.130;-117.188;2023-04-07T10:03:08;99627.66;;;9.26;69.49
37848;BME280;23688;33.130;-117.188;2023-04-07T10:05:35;99624.84;;;9.21;69.96
37848;BME280;23688;33.130;-117.188;2023-04-07T10:08:05;99620.41;;;9.19;70.45
37848;BME280;23688;33.130;-117.188;2023-04-07T10:10:31;99618.56;;;9.16;70.57
37848;BME280;23688;33.130;-117.188;2023-04-07T10:12:58;99613.91;;;9.09;70.51
37848;BME280;23688;33.130;-117.188;2023-04-07T10:15:25;99629.91;;;9.00;71.28
37848;BME280;23688;33.130;-117.188;2023-04-07T10:17:52;99618.34;;;8.94;71.73
37848;BME280;23688;33.130;-117.188;2023-04-07T10:20:22;99620.31;;;8.99;72.41
37848;BME280;23688;33.130;-117.188;2023-04-07T10:22:50;99609.44;;;8.89;72.90
37848;BME280;23688;33.130;-117.188;2023-04-07T10:25:21;99620.69;;;8.89;73.05
37848;BME280;23688;33.130;-117.188;2023-04-07T10:28:03;99616.47;;;8.91;73.65
37848;BME280;23688;33.130;-117.188;2023-04-07T10:30:32;99615.59;;;8.91;73.81
37848;BME280;23688;33.130;-117.188;2023-04-07T10:32:59;99605.25;;;8.91;73.61
37848;BME280;23688;33.130;-117.188;2023-04-07T10:35:27;99579.78;;;8.82;73.32
37848;BME280;23688;33.130;-117.188;2023-04-07T10:40:33;99572.97;;;8.84;72.72
37848;BME280;23688;33.130;-117.188;2023-04-07T10:42:59;99597.09;;;9.01;72.27
37848;BME280;23688;33.130;-117.188;2023-04-07T10:45:55;99602.50;;;9.06;72.08
37848;BME280;23688;33.130;-117.188;2023-04-07T10:48:24;99573.56;;;8.96;71.33
37848;BME280;23688;33.130;-117.188;2023-04-07T10:53:33;99597.47;;;9.09;71.34
37848;BME280;23688;33.130;-117.188;2023-04-07T10:55:59;99597.47;;;9.09;70.95
37848;BME280;23688;33.130;-117.188;2023-04-07T10:58:27;99594.16;;;9.11;71.06
37848;BME280;23688;33.130;-117.188;2023-04-07T11:03:26;99582.25;;;9.15;70.11
37848;BME280;23688;33.130;-117.188;2023-04-07T11:06:13;99580.63;;;9.17;69.95
37848;BME280;23688;33.130;-117.188;2023-04-07T11:08:45;99582.25;;;9.15;70.61
37848;BME280;23688;33.130;-117.188;2023-04-07T11:11:14;99584.00;;;9.16;71.22
37848;BME280;23688;33.130;-117.188;2023-04-07T11:16:10;99581.72;;;9.22;71.46
37848;BME280;23688;33.130;-117.188;2023-04-07T11:18:37;99590.31;;;9.21;70.93
37848;BME280;23688;33.130;-117.188;2023-04-07T11:21:04;99596.69;;;9.28;70.26
37848;BME280;23688;33.130;-117.188;2023-04-07T11:23:43;99598.59;;;9.32;70.06
37848;BME280;23688;33.130;-117.188;2023-04-07T11:26:10;99585.69;;;9.33;69.89
37848;BME280;23688;33.130;-117.188;2023-04-07T11:28:47;99583.50;;;9.23;70.52
37848;BME280;23688;33.130;-117.188;2023-04-07T11:31:30;99571.19;;;9.19;70.49
37848;BME280;23688;33.130;-117.188;2023-04-07T11:34:02;99603.78;;;9.32;70.26
37848;BME280;23688;33.130;-117.188;2023-04-07T11:36:33;99601.34;;;9.35;70.55
37848;BME280;23688;33.130;-117.188;2023-04-07T11:39:01;99599.63;;;9.35;70.74
37848;BME280;23688;33.130;-117.188;2023-04-07T11:41:29;99577.56;;;9.26;71.17
37848;BME280;23688;33.130;-117.188;2023-04-07T11:44:11;99593.66;;;9.36;71.02
37848;BME280;23688;33.130;-117.188;2023-04-07T11:47:00;99587.56;;;9.36;71.08
37848;BME280;23688;33.130;-117.188;2023-04-07T11:49:29;99592.94;;;9.40;71.02
37848;BME280;23688;33.130;-117.188;2023-04-07T11:52:01;99590.97;;;9.35;71.54
37848;BME280;23688;33.130;-117.188;2023-04-07T11:54:41;99585.69;;;9.33;71.09
37848;BME280;23688;33.130;-117.188;2023-04-07T11:57:07;99578.44;;;9.26;70.45
37848;BME280;23688;33.130;-117.188;2023-04-07T11:59:39;99595.09;;;9.31;71.72
37848;BME280;23688;33.130;-117.188;2023-04-07T12:02:05;99602.72;;;9.28;71.77
37848;BME280;23688;33.130;-117.188;2023-04-07T12:04:32;99604.88;;;9.19;72.09
37848;BME280;23688;33.130;-117.188;2023-04-07T12:07:10;99592.03;;;9.03;72.92
37848;BME280;23688;33.130;-117.188;2023-04-07T12:09:37;99612.13;;;9.08;73.79
37848;BME280;23688;33.130;-117.188;2023-04-07T12:12:05;99618.16;;;9.07;74.00
37848;BME280;23688;33.130;-117.188;2023-04-07T12:14:32;99612.72;;;9.03;74.41
37848;BME280;23688;33.130;-117.188;2023-04-07T12:16:59;99609.44;;;8.89;74.89
37848;BME280;23688;33.130;-117.188;2023-04-07T12:19:28;99622.53;;;8.92;74.83
37848;BME280;23688;33.130;-117.188;2023-04-07T12:21:55;99619.56;;;8.84;74.35
37848;BME280;23688;33.130;-117.188;2023-04-07T12:24:21;99627.44;;;8.86;74.00
37848;BME280;23688;33.130;-117.188;2023-04-07T12:26:48;99632.09;;;8.93;75.39
37848;BME280;23688;33.130;-117.188;2023-04-07T12:29:18;99620.84;;;8.92;75.84
37848;BME280;23688;33.130;-117.188;2023-04-07T12:31:48;99632.34;;;8.97;73.61
37848;BME280;23688;33.130;-117.188;2023-04-07T12:34:14;99630.78;;;9.01;75.22
37848;BME280;23688;33.130;-117.188;2023-04-07T12:36:41;99622.88;;;8.98;75.33
37848;BME280;23688;33.130;-117.188;2023-04-07T12:39:07;99616.28;;;9.05;75.01
37848;BME280;23688;33.130;-117.188;2023-04-07T12:41:33;99618.88;;;9.05;72.30
37848;BME280;23688;33.130;-117.188;2023-04-07T12:43:59;99607.69;;;9.06;71.81
37848;BME280;23688;33.130;-117.188;2023-04-07T12:46:26;99592.81;;;9.02;70.70
37848;BME280;23688;33.130;-117.188;2023-04-07T12:48:52;99602.88;;;9.13;69.41
37848;BME280;23688;33.130;-117.188;2023-04-07T12:51:18;99617.09;;;9.21;68.70
37848;BME280;23688;33.130;-117.188;2023-04-07T12:53:45;99607.13;;;9.29;69.83
37848;BME280;23688;33.130;-117.188;2023-04-07T12:56:12;99611.91;;;9.39;69.15